sensor_id;sensor_type;location;lat;lon;timestamp;P1;durP1;ratioP1;P2;durP2;ratioP2
15287;SDS011;7745;48.708;9.026;2023-05-07T00:00:50;5.17;;;2.70;;
15287;SDS011;7745;48.708;9.026;2023-05-07T00:03:17;2.70;;;2.40;;
15287;SDS011;7745;48.708;9.026;2023-05-07T00:05:44;3.80;;;2.77;;
15287;SDS011;7745;48.708;9.026;2023-05-07T00:08:14;4.20;;;2.80;;
15287;SDS011;7745;48.708;9.026;2023-05-07T00:10:41;3.80;;;2.50;;
15287;SDS011;7745;48.708;9.026;2023-05-07T00:13:09;3.63;;;2.80;;
15287;SDS011;7745;48.708;9.026;2023-05-07T00:15:39;3.60;;;2.80;;
15287;SDS011;7745;48.708;9.026;2023-05-07T00:18:07;4.27;;;2.73;;
15287;SDS011;7745;48.708;9.026;2023-05-07T00:20:34;7.27;;;2.50;;
15287;SDS011;7745;48.708;9.026;2023-05-07T00:23:04;6.03;;;2.90;;
15287;SDS011;7745;48.708;9.026;2023-05-07T00:25:31;6.70;;;2.67;;
15287;SDS011;7745;48.708;9.026;2023-05-07T00:28:00;4.80;;;2.60;;
15287;SDS011;7745;48.708;9.026;2023-05-07T00:30:28;3.63;;;2.87;;
15287;SDS011;7745;48.708;9.026;2023-05-07T00:32:55;4.73;;;2.87;;
15287;SDS011;7745;48.708;9.026;2023-05-07T00:35:24;5.30;;;2.40;;
15287;SDS011;7745;48.708;9.026;2023-05-07T00:37:51;4.13;;;2.40;;
15287;SDS011;7745;48.708;9.026;2023-05-07T00:40:18;2.80;;;2.50;;
15287;SDS011;7745;48.708;9.026;2023-05-07T00:42:45;4.10;;;2.80;;
15287;SDS011;7745;48.708;9.026;2023-05-07T00:45:12;5.77;;;2.60;;
15287;SDS011;7745;48.708;9.026;2023-05-07T00:47:38;3.30;;;2.60;;
15287;SDS011;7745;48.708;9.026;2023-05-07T00:50:06;4.70;;;2.80;;
15287;SDS011;7745;48.708;9.026;2023-05-07T00:52:37;3.87;;;2.60;;
15287;SDS011;7745;48.708;9.026;2023-05-07T00:55:04;3.63;;;2.43;;
15287;SDS011;7745;48.708;9.026;2023-05-07T00:57:32;2.60;;;2.40;;
15287;SDS011;7745;48.708;9.026;2023-05-07T01:00:02;4.93;;;2.43;;
15287;SDS011;7745;48.708;9.026;2023-05-07T01:02:30;4.07;;;2.90;;
15287;SDS011;7745;48.708;9.026;2023-05-07T01:04:56;5.00;;;3.00;;
15287;SDS011;7745;48.708;9.026;2023-05-07T01:07:24;3.00;;;2.67;;
15287;SDS011;7745;48.708;9.026;2023-05-07T01:09:52;3.80;;;2.50;;
15287;SDS011;7745;48.708;9.026;2023-05-07T01:12:19;4.03;;;2.70;;
15287;SDS011;7745;48.708;9.026;2023-05-07T01:14:46;5.80;;;2.63;;
15287;SDS011;7745;48.708;9.026;2023-05-07T01:17:14;3.67;;;2.80;;
15287;SDS011;7745;48.708;9.026;2023-05-07T01:19:41;2.97;;;2.50;;
15287;SDS011;7745;48.708;9.026;2023-05-07T01:22:09;3.80;;;2.80;;
15287;SDS011;7745;48.708;9.026;2023-05-07T01:24:39;3.47;;;2.60;;
15287;SDS011;7745;48.708;9.026;2023-05-07T01:27:06;2.67;;;2.40;;
15287;SDS011;7745;48.708;9.026;2023-05-07T01:29:33;4.23;;;2.53;;
15287;SDS011;7745;48.708;9.026;2023-05-07T01:32:00;4.60;;;2.70;;
15287;SDS011;7745;48.708;9.026;2023-05-07T01:34:28;2.93;;;2.40;;
15287;SDS011;7745;48.708;9.026;2023-05-07T01:36:58;2.77;;;2.50;;
15287;SDS011;7745;48.708;9.026;2023-05-07T01:39:27;3.87;;;2.70;;
15287;SDS011;7745;48.708;9.026;2023-05-07T01:41:56;3.30;;;2.50;;
15287;SDS011;7745;48.708;9.026;2023-05-07T01:44:25;2.90;;;2.43;;
15287;SDS011;7745;48.708;9.026;2023-05-07T01:46:53;4.17;;;2.47;;
15287;SDS011;7745;48.708;9.026;2023-05-07T01:49:20;3.77;;;2.53;;
15287;SDS011;7745;48.708;9.026;2023-05-07T01:51:47;2.93;;;2.63;;
15287;SDS011;7745;48.708;9.026;2023-05-07T01:54:15;5.57;;;3.00;;
15287;SDS011;7745;48.708;9.026;2023-05-07T01:56:42;3.73;;;2.70;;
15287;SDS011;7745;48.708;9.026;2023-05-07T01:59:10;4.13;;;2.90;;
15287;SDS011;7745;48.708;9.026;2023-05-07T02:01:40;3.50;;;2.83;;
15287;SDS011;7745;48.708;9.026;2023-05-07T02:04:07;3.50;;;2.90;;
15287;SDS011;7745;48.708;9.026;2023-05-07T02:06:34;2.83;;;2.57;;
15287;SDS011;7745;48.708;9.026;2023-05-07T02:09:03;3.43;;;2.73;;
15287;SDS011;7745;48.708;9.026;2023-05-07T02:11:30;4.87;;;3.00;;
15287;SDS011;7745;48.708;9.026;2023-05-07T02:13:57;4.03;;;2.93;;
15287;SDS011;7745;48.708;9.026;2023-05-07T02:16:26;3.43;;;2.30;;
15287;SDS011;7745;48.708;9.026;2023-05-07T02:18:55;3.67;;;2.83;;
15287;SDS011;7745;48.708;9.026;2023-05-07T02:21:23;3.10;;;2.37;;
15287;SDS011;7745;48.708;9.026;2023-05-07T02:23:53;4.67;;;2.80;;
15287;SDS011;7745;48.708;9.026;2023-05-07T02:26:22;3.30;;;2.80;;
15287;SDS011;7745;48.708;9.026;2023-05-07T02:28:50;4.37;;;2.43;;
15287;SDS011;7745;48.708;9.026;2023-05-07T02:31:18;5.67;;;2.50;;
15287;SDS011;7745;48.708;9.026;2023-05-07T02:33:49;4.23;;;2.77;;
15287;SDS011;7745;48.708;9.026;2023-05-07T02:36:16;4.73;;;2.83;;
15287;SDS011;7745;48.708;9.026;2023-05-07T02:38:43;3.93;;;2.67;;
15287;SDS011;7745;48.708;9.026;2023-05-07T02:41:12;3.37;;;2.40;;
15287;SDS011;7745;48.708;9.026;2023-05-07T02:43:39;4.40;;;2.50;;
15287;SDS011;7745;48.708;9.026;2023-05-07T02:46:09;3.40;;;2.43;;
15287;SDS011;7745;48.708;9.026;2023-05-07T02:48:39;5.13;;;2.93;;
15287;SDS011;7745;48.708;9.026;2023-05-07T02:51:08;4.20;;;2.77;;
15287;SDS011;7745;48.708;9.026;2023-05-07T02:53:37;4.23;;;2.60;;
15287;SDS011;7745;48.708;9.026;2023-05-07T02:56:04;3.47;;;2.70;;
15287;SDS011;7745;48.708;9.026;2023-05-07T02:58:32;3.57;;;2.63;;
15287;SDS011;7745;48.708;9.026;2023-05-07T03:01:01;6.57;;;2.93;;
15287;SDS011;7745;48.708;9.026;2023-05-07T03:03:28;3.53;;;2.60;;
15287;SDS011;7745;48.708;9.026;2023-05-07T03:05:55;3.97;;;2.50;;
15287;SDS011;7745;48.708;9.026;2023-05-07T03:08:23;3.33;;;2.50;;
15287;SDS011;7745;48.708;9.026;2023-05-07T03:10:50;3.27;;;2.60;;
15287;SDS011;7745;48.708;9.026;2023-05-07T03:13:17;2.60;;;2.40;;
15287;SDS011;7745;48.708;9.026;2023-05-07T03:15:47;4.03;;;2.30;;
15287;SDS011;7745;48.708;9.026;2023-05-07T03:18:14;2.70;;;2.50;;
15287;SDS011;7745;48.708;9.026;2023-05-07T03:20:44;4.73;;;2.20;;
15287;SDS011;7745;48.708;9.026;2023-05-07T03:23:11;2.63;;;2.00;;
15287;SDS011;7745;48.708;9.026;2023-05-07T03:25:39;3.97;;;2.30;;
15287;SDS011;7745;48.708;9.026;2023-05-07T03:28:06;2.90;;;2.57;;
15287;SDS011;7745;48.708;9.026;2023-05-07T03:30:33;3.57;;;2.30;;
15287;SDS011;7745;48.708;9.026;2023-05-07T03:33:00;2.83;;;2.23;;
15287;SDS011;7745;48.708;9.026;2023-05-07T03:35:26;2.80;;;2.47;;
15287;SDS011;7745;48.708;9.026;2023-05-07T03:37:53;3.97;;;2.30;;
15287;SDS011;7745;48.708;9.026;2023-05-07T03:40:23;4.43;;;2.47;;
15287;SDS011;7745;48.708;9.026;2023-05-07T03:42:52;3.10;;;2.53;;
15287;SDS011;7745;48.708;9.026;2023-05-07T03:45:19;3.33;;;2.30;;
15287;SDS011;7745;48.708;9.026;2023-05-07T03:47:46;2.63;;;2.20;;
15287;SDS011;7745;48.708;9.026;2023-05-07T03:50:12;2.67;;;2.47;;
15287;SDS011;7745;48.708;9.026;2023-05-07T03:52:39;4.10;;;2.60;;
15287;SDS011;7745;48.708;9.026;2023-05-07T03:55:06;4.13;;;2.70;;
15287;SDS011;7745;48.708;9.026;2023-05-07T03:57:34;2.67;;;2.47;;
15287;SDS011;7745;48.708;9.026;2023-05-07T04:00:03;4.67;;;3.10;;
15287;SDS011;7745;48.708;9.026;2023-05-07T04:02:31;2.80;;;2.60;;
15287;SDS011;7745;48.708;9.026;2023-05-07T04:04:59;3.43;;;2.50;;
15287;SDS011;7745;48.708;9.026;2023-05-07T04:07:26;3.57;;;2.70;;
15287;SDS011;7745;48.708;9.026;2023-05-07T04:09:53;4.50;;;3.20;;
15287;SDS011;7745;48.708;9.026;2023-05-07T04:12:19;3.83;;;2.73;;
15287;SDS011;7745;48.708;9.026;2023-05-07T04:14:49;2.63;;;2.43;;
15287;SDS011;7745;48.708;9.026;2023-05-07T04:17:17;3.63;;;2.50;;
15287;SDS011;7745;48.708;9.026;2023-05-07T04:19:44;5.57;;;2.63;;
15287;SDS011;7745;48.708;9.026;2023-05-07T04:22:11;2.70;;;2.27;;
15287;SDS011;7745;48.708;9.026;2023-05-07T04:24:38;4.70;;;2.57;;
15287;SDS011;7745;48.708;9.026;2023-05-07T04:27:08;6.93;;;2.90;;
15287;SDS011;7745;48.708;9.026;2023-05-07T04:29:35;3.87;;;2.70;;
15287;SDS011;7745;48.708;9.026;2023-05-07T04:32:04;6.23;;;2.77;;
15287;SDS011;7745;48.708;9.026;2023-05-07T04:34:39;3.90;;;2.67;;
15287;SDS011;7745;48.708;9.026;2023-05-07T04:37:10;3.87;;;2.50;;
15287;SDS011;7745;48.708;9.026;2023-05-07T04:42:47;2.57;;;2.37;;
15287;SDS011;7745;48.708;9.026;2023-05-07T04:45:14;2.47;;;2.27;;
15287;SDS011;7745;48.708;9.026;2023-05-07T04:47:40;4.17;;;2.63;;
15287;SDS011;7745;48.708;9.026;2023-05-07T04:50:09;3.63;;;2.47;;
15287;SDS011;7745;48.708;9.026;2023-05-07T04:52:36;3.00;;;2.67;;
15287;SDS011;7745;48.708;9.026;2023-05-07T04:55:09;2.90;;;2.10;;
15287;SDS011;7745;48.708;9.026;2023-05-07T04:57:38;2.60;;;2.10;;
15287;SDS011;7745;48.708;9.026;2023-05-07T05:00:06;3.43;;;2.50;;
15287;SDS011;7745;48.708;9.026;2023-05-07T05:02:35;2.57;;;2.37;;
15287;SDS011;7745;48.708;9.026;2023-05-07T05:08:41;2.70;;;2.50;;
15287;SDS011;7745;48.708;9.026;2023-05-07T05:15:30;2.90;;;2.60;;
15287;SDS011;7745;48.708;9.026;2023-05-07T05:17:57;4.13;;;2.53;;
15287;SDS011;7745;48.708;9.026;2023-05-07T05:20:31;5.77;;;2.40;;
15287;SDS011;7745;48.708;9.026;2023-05-07T05:22:58;2.80;;;2.60;;
15287;SDS011;7745;48.708;9.026;2023-05-07T05:25:45;41.73;;;17.20;;
15287;SDS011;7745;48.708;9.026;2023-05-07T05:28:13;42.30;;;28.43;;
15287;SDS011;7745;48.708;9.026;2023-05-07T05:30:39;18.67;;;12.03;;
15287;SDS011;7745;48.708;9.026;2023-05-07T05:35:58;3.77;;;3.10;;
15287;SDS011;7745;48.708;9.026;2023-05-07T05:38:25;5.00;;;2.60;;
15287;SDS011;7745;48.708;9.026;2023-05-07T05:41:07;4.00;;;3.00;;
15287;SDS011;7745;48.708;9.026;2023-05-07T05:43:40;4.53;;;3.10;;
15287;SDS011;7745;48.708;9.026;2023-05-07T05:46:06;3.53;;;2.93;;
15287;SDS011;7745;48.708;9.026;2023-05-07T05:48:36;4.07;;;3.20;;
15287;SDS011;7745;48.708;9.026;2023-05-07T05:51:03;4.80;;;3.40;;
15287;SDS011;7745;48.708;9.026;2023-05-07T05:53:30;5.43;;;3.30;;
15287;SDS011;7745;48.708;9.026;2023-05-07T05:55:56;2.97;;;2.67;;
15287;SDS011;7745;48.708;9.026;2023-05-07T05:58:25;3.67;;;2.50;;
15287;SDS011;7745;48.708;9.026;2023-05-07T06:00:52;5.70;;;3.20;;
15287;SDS011;7745;48.708;9.026;2023-05-07T06:03:19;5.73;;;3.37;;
15287;SDS011;7745;48.708;9.026;2023-05-07T06:05:46;4.17;;;3.20;;
15287;SDS011;7745;48.708;9.026;2023-05-07T06:08:13;4.00;;;3.60;;
15287;SDS011;7745;48.708;9.026;2023-05-07T06:10:39;4.20;;;3.40;;
15287;SDS011;7745;48.708;9.026;2023-05-07T06:13:06;6.40;;;4.03;;
15287;SDS011;7745;48.708;9.026;2023-05-07T06:15:34;4.70;;;3.70;;
15287;SDS011;7745;48.708;9.026;2023-05-07T06:18:01;3.83;;;3.37;;
15287;SDS011;7745;48.708;9.026;2023-05-07T06:20:28;3.40;;;3.10;;
15287;SDS011;7745;48.708;9.026;2023-05-07T06:22:55;3.77;;;3.33;;
15287;SDS011;7745;48.708;9.026;2023-05-07T06:25:22;4.27;;;3.43;;
15287;SDS011;7745;48.708;9.026;2023-05-07T06:27:48;5.33;;;3.30;;
15287;SDS011;7745;48.708;9.026;2023-05-07T06:30:15;3.50;;;3.17;;
15287;SDS011;7745;48.708;9.026;2023-05-07T06:32:45;5.33;;;3.53;;
15287;SDS011;7745;48.708;9.026;2023-05-07T06:35:12;5.30;;;3.20;;
15287;SDS011;7745;48.708;9.026;2023-05-07T06:37:39;3.90;;;2.90;;
15287;SDS011;7745;48.708;9.026;2023-05-07T06:40:07;3.83;;;2.80;;
15287;SDS011;7745;48.708;9.026;2023-05-07T06:42:35;6.13;;;2.70;;
15287;SDS011;7745;48.708;9.026;2023-05-07T06:45:02;3.73;;;3.03;;
15287;SDS011;7745;48.708;9.026;2023-05-07T06:47:29;3.23;;;2.73;;
15287;SDS011;7745;48.708;9.026;2023-05-07T06:49:58;2.77;;;2.50;;
15287;SDS011;7745;48.708;9.026;2023-05-07T06:52:24;3.67;;;2.57;;
15287;SDS011;7745;48.708;9.026;2023-05-07T06:54:51;4.87;;;2.40;;
15287;SDS011;7745;48.708;9.026;2023-05-07T06:57:18;3.97;;;2.73;;
15287;SDS011;7745;48.708;9.026;2023-05-07T07:22:49;4.83;;;3.70;;
15287;SDS011;7745;48.708;9.026;2023-05-07T07:25:16;3.70;;;2.77;;
15287;SDS011;7745;48.708;9.026;2023-05-07T07:27:43;4.37;;;2.53;;
15287;SDS011;7745;48.708;9.026;2023-05-07T07:33:07;6.10;;;3.40;;
15287;SDS011;7745;48.708;9.026;2023-05-07T07:35:49;2.67;;;2.47;;
15287;SDS011;7745;48.708;9.026;2023-05-07T07:38:17;4.87;;;2.70;;
15287;SDS011;7745;48.708;9.026;2023-05-07T07:40:44;4.17;;;2.63;;
15287;SDS011;7745;48.708;9.026;2023-05-07T07:43:11;4.43;;;2.43;;
15287;SDS011;7745;48.708;9.026;2023-05-07T07:45:38;2.90;;;2.50;;
15287;SDS011;7745;48.708;9.026;2023-05-07T07:48:05;3.80;;;2.73;;
15287;SDS011;7745;48.708;9.026;2023-05-07T07:50:31;4.57;;;1.90;;
15287;SDS011;7745;48.708;9.026;2023-05-07T07:52:58;4.13;;;2.33;;
15287;SDS011;7745;48.708;9.026;2023-05-07T07:55:26;5.00;;;2.57;;
15287;SDS011;7745;48.708;9.026;2023-05-07T07:57:53;1.97;;;1.80;;
15287;SDS011;7745;48.708;9.026;2023-05-07T08:00:20;3.73;;;1.90;;
15287;SDS011;7745;48.708;9.026;2023-05-07T08:02:47;2.63;;;2.30;;
15287;SDS011;7745;48.708;9.026;2023-05-07T08:05:13;3.43;;;2.80;;
15287;SDS011;7745;48.708;9.026;2023-05-07T08:07:40;5.43;;;2.20;;
15287;SDS011;7745;48.708;9.026;2023-05-07T08:10:07;3.47;;;2.20;;
15287;SDS011;7745;48.708;9.026;2023-05-07T08:15:25;2.80;;;2.00;;
15287;SDS011;7745;48.708;9.026;2023-05-07T08:17:57;3.90;;;2.03;;
15287;SDS011;7745;48.708;9.026;2023-05-07T08:20:25;2.72;;;2.03;;
15287;SDS011;7745;48.708;9.026;2023-05-07T08:22:52;2.72;;;2.00;;
15287;SDS011;7745;48.708;9.026;2023-05-07T08:25:18;3.47;;;2.10;;
15287;SDS011;7745;48.708;9.026;2023-05-07T08:28:15;2.42;;;1.90;;
15287;SDS011;7745;48.708;9.026;2023-05-07T08:30:42;3.55;;;2.40;;
15287;SDS011;7745;48.708;9.026;2023-05-07T08:33:09;2.05;;;1.70;;
15287;SDS011;7745;48.708;9.026;2023-05-07T08:35:36;3.67;;;2.20;;
15287;SDS011;7745;48.708;9.026;2023-05-07T08:38:02;2.65;;;1.73;;
15287;SDS011;7745;48.708;9.026;2023-05-07T08:40:31;3.63;;;1.83;;
15287;SDS011;7745;48.708;9.026;2023-05-07T08:43:02;3.60;;;1.80;;
15287;SDS011;7745;48.708;9.026;2023-05-07T08:45:33;3.03;;;1.83;;
15287;SDS011;7745;48.708;9.026;2023-05-07T08:48:01;3.50;;;1.80;;
15287;SDS011;7745;48.708;9.026;2023-05-07T08:50:29;1.92;;;1.50;;
15287;SDS011;7745;48.708;9.026;2023-05-07T08:52:56;1.85;;;1.50;;
15287;SDS011;7745;48.708;9.026;2023-05-07T08:55:23;3.30;;;1.70;;
15287;SDS011;7745;48.708;9.026;2023-05-07T08:57:50;2.95;;;1.73;;
15287;SDS011;7745;48.708;9.026;2023-05-07T09:00:18;3.75;;;1.70;;
15287;SDS011;7745;48.708;9.026;2023-05-07T09:02:46;3.30;;;1.80;;
15287;SDS011;7745;48.708;9.026;2023-05-07T09:05:13;2.08;;;1.75;;
15287;SDS011;7745;48.708;9.026;2023-05-07T09:07:40;2.55;;;2.05;;
15287;SDS011;7745;48.708;9.026;2023-05-07T09:10:20;4.10;;;1.52;;
15287;SDS011;7745;48.708;9.026;2023-05-07T09:13:02;4.45;;;1.80;;
15287;SDS011;7745;48.708;9.026;2023-05-07T09:15:32;2.35;;;1.80;;
15287;SDS011;7745;48.708;9.026;2023-05-07T09:18:05;4.05;;;2.03;;
15287;SDS011;7745;48.708;9.026;2023-05-07T09:20:47;3.78;;;1.67;;
15287;SDS011;7745;48.708;9.026;2023-05-07T09:23:37;2.70;;;1.48;;
15287;SDS011;7745;48.708;9.026;2023-05-07T09:44:43;2.97;;;2.05;;
15287;SDS011;7745;48.708;9.026;2023-05-07T10:08:12;2.47;;;1.95;;
15287;SDS011;7745;48.708;9.026;2023-05-07T10:35:06;3.50;;;2.20;;
15287;SDS011;7745;48.708;9.026;2023-05-07T10:37:47;3.45;;;1.90;;
15287;SDS011;7745;48.708;9.026;2023-05-07T10:50:29;2.13;;;1.92;;
15287;SDS011;7745;48.708;9.026;2023-05-07T11:06:31;2.40;;;1.85;;
15287;SDS011;7745;48.708;9.026;2023-05-07T11:08:59;3.35;;;1.80;;
15287;SDS011;7745;48.708;9.026;2023-05-07T11:14:47;2.88;;;2.15;;
15287;SDS011;7745;48.708;9.026;2023-05-07T11:17:20;2.28;;;1.95;;
15287;SDS011;7745;48.708;9.026;2023-05-07T11:20:00;1.98;;;1.77;;
15287;SDS011;7745;48.708;9.026;2023-05-07T11:26:29;2.40;;;1.80;;
15287;SDS011;7745;48.708;9.026;2023-05-07T11:29:19;5.40;;;2.38;;
15287;SDS011;7745;48.708;9.026;2023-05-07T11:32:12;2.70;;;2.40;;
15287;SDS011;7745;48.708;9.026;2023-05-07T11:35:22;3.13;;;2.30;;
15287;SDS011;7745;48.708;9.026;2023-05-07T11:38:05;2.78;;;2.20;;
15287;SDS011;7745;48.708;9.026;2023-05-07T11:40:32;2.90;;;2.08;;
15287;SDS011;7745;48.708;9.026;2023-05-07T11:43:01;5.85;;;2.22;;
15287;SDS011;7745;48.708;9.026;2023-05-07T11:48:15;3.22;;;2.05;;
15287;SDS011;7745;48.708;9.026;2023-05-07T11:51:01;2.85;;;1.70;;
15287;SDS011;7745;48.708;9.026;2023-05-07T11:53:54;4.20;;;2.13;;
15287;SDS011;7745;48.708;9.026;2023-05-07T11:56:43;3.75;;;2.50;;
15287;SDS011;7745;48.708;9.026;2023-05-07T12:09:50;4.60;;;1.63;;
15287;SDS011;7745;48.708;9.026;2023-05-07T12:16:18;15.10;;;3.63;;
15287;SDS011;7745;48.708;9.026;2023-05-07T12:23:05;5.10;;;2.10;;
15287;SDS011;7745;48.708;9.026;2023-05-07T12:32:25;3.47;;;2.60;;
15287;SDS011;7745;48.708;9.026;2023-05-07T12:35:30;3.27;;;2.60;;
15287;SDS011;7745;48.708;9.026;2023-05-07T12:37:59;4.77;;;2.10;;
15287;SDS011;7745;48.708;9.026;2023-05-07T12:50:47;4.27;;;2.17;;
15287;SDS011;7745;48.708;9.026;2023-05-07T13:00:33;5.73;;;2.50;;
15287;SDS011;7745;48.708;9.026;2023-05-07T13:10:04;6.10;;;2.83;;
15287;SDS011;7745;48.708;9.026;2023-05-07T13:16:07;5.20;;;3.20;;
15287;SDS011;7745;48.708;9.026;2023-05-07T13:22:43;5.93;;;3.00;;
15287;SDS011;7745;48.708;9.026;2023-05-07T13:30:24;5.13;;;3.53;;
15287;SDS011;7745;48.708;9.026;2023-05-07T13:32:55;9.93;;;3.97;;
15287;SDS011;7745;48.708;9.026;2023-05-07T13:35:25;6.83;;;3.03;;
15287;SDS011;7745;48.708;9.026;2023-05-07T13:37:56;6.00;;;3.20;;
15287;SDS011;7745;48.708;9.026;2023-05-07T13:40:25;4.90;;;3.37;;
15287;SDS011;7745;48.708;9.026;2023-05-07T13:42:56;5.50;;;3.50;;
15287;SDS011;7745;48.708;9.026;2023-05-07T13:45:44;6.43;;;3.27;;
15287;SDS011;7745;48.708;9.026;2023-05-07T13:51:17;7.27;;;3.13;;
15287;SDS011;7745;48.708;9.026;2023-05-07T14:00:54;4.73;;;2.90;;
15287;SDS011;7745;48.708;9.026;2023-05-07T14:03:23;7.17;;;3.60;;
15287;SDS011;7745;48.708;9.026;2023-05-07T14:05:50;10.13;;;3.57;;
15287;SDS011;7745;48.708;9.026;2023-05-07T14:08:28;7.17;;;3.60;;
15287;SDS011;7745;48.708;9.026;2023-05-07T14:11:07;7.33;;;3.67;;
15287;SDS011;7745;48.708;9.026;2023-05-07T14:13:40;8.80;;;4.17;;
15287;SDS011;7745;48.708;9.026;2023-05-07T14:18:50;5.47;;;4.30;;
15287;SDS011;7745;48.708;9.026;2023-05-07T14:21:17;6.67;;;3.60;;
15287;SDS011;7745;48.708;9.026;2023-05-07T14:23:43;5.93;;;3.50;;
15287;SDS011;7745;48.708;9.026;2023-05-07T14:26:10;6.77;;;4.03;;
15287;SDS011;7745;48.708;9.026;2023-05-07T14:28:37;5.20;;;2.67;;
15287;SDS011;7745;48.708;9.026;2023-05-07T14:31:04;6.90;;;2.63;;
15287;SDS011;7745;48.708;9.026;2023-05-07T14:33:32;4.87;;;2.87;;
15287;SDS011;7745;48.708;9.026;2023-05-07T14:35:59;4.87;;;3.00;;
15287;SDS011;7745;48.708;9.026;2023-05-07T14:38:26;5.67;;;2.77;;
15287;SDS011;7745;48.708;9.026;2023-05-07T14:40:52;2.87;;;2.23;;
15287;SDS011;7745;48.708;9.026;2023-05-07T14:43:21;4.03;;;2.50;;
15287;SDS011;7745;48.708;9.026;2023-05-07T14:45:47;3.63;;;2.47;;
15287;SDS011;7745;48.708;9.026;2023-05-07T14:48:14;5.37;;;2.50;;
15287;SDS011;7745;48.708;9.026;2023-05-07T14:50:43;6.00;;;2.77;;
15287;SDS011;7745;48.708;9.026;2023-05-07T14:53:09;6.10;;;2.60;;
15287;SDS011;7745;48.708;9.026;2023-05-07T14:55:36;6.43;;;2.40;;
15287;SDS011;7745;48.708;9.026;2023-05-07T14:58:03;5.27;;;2.70;;
15287;SDS011;7745;48.708;9.026;2023-05-07T15:00:30;3.80;;;2.30;;
15287;SDS011;7745;48.708;9.026;2023-05-07T15:03:01;5.03;;;2.30;;
15287;SDS011;7745;48.708;9.026;2023-05-07T15:05:32;3.40;;;2.50;;
15287;SDS011;7745;48.708;9.026;2023-05-07T15:08:00;6.67;;;2.80;;
15287;SDS011;7745;48.708;9.026;2023-05-07T15:10:27;2.77;;;2.00;;
15287;SDS011;7745;48.708;9.026;2023-05-07T15:12:53;2.40;;;2.13;;
15287;SDS011;7745;48.708;9.026;2023-05-07T15:15:20;5.43;;;2.43;;
15287;SDS011;7745;48.708;9.026;2023-05-07T15:17:47;3.27;;;2.20;;
15287;SDS011;7745;48.708;9.026;2023-05-07T15:20:14;4.50;;;2.37;;
15287;SDS011;7745;48.708;9.026;2023-05-07T15:22:41;4.10;;;2.30;;
15287;SDS011;7745;48.708;9.026;2023-05-07T15:25:09;3.17;;;2.40;;
15287;SDS011;7745;48.708;9.026;2023-05-07T15:27:36;4.83;;;2.33;;
15287;SDS011;7745;48.708;9.026;2023-05-07T15:30:03;3.47;;;2.40;;
15287;SDS011;7745;48.708;9.026;2023-05-07T15:32:31;5.27;;;2.80;;
15287;SDS011;7745;48.708;9.026;2023-05-07T15:34:57;5.87;;;3.03;;
15287;SDS011;7745;48.708;9.026;2023-05-07T15:37:24;5.90;;;3.20;;
15287;SDS011;7745;48.708;9.026;2023-05-07T15:39:51;5.33;;;3.30;;
15287;SDS011;7745;48.708;9.026;2023-05-07T15:42:19;4.93;;;2.77;;
15287;SDS011;7745;48.708;9.026;2023-05-07T15:44:46;4.63;;;3.03;;
15287;SDS011;7745;48.708;9.026;2023-05-07T15:47:13;3.63;;;2.40;;
15287;SDS011;7745;48.708;9.026;2023-05-07T15:49:40;4.20;;;2.73;;
15287;SDS011;7745;48.708;9.026;2023-05-07T15:52:06;4.77;;;3.00;;
15287;SDS011;7745;48.708;9.026;2023-05-07T15:54:35;5.07;;;3.10;;
15287;SDS011;7745;48.708;9.026;2023-05-07T15:57:02;4.57;;;3.13;;
15287;SDS011;7745;48.708;9.026;2023-05-07T15:59:32;4.87;;;3.53;;
15287;SDS011;7745;48.708;9.026;2023-05-07T16:02:00;8.10;;;5.23;;
15287;SDS011;7745;48.708;9.026;2023-05-07T16:04:27;6.80;;;4.30;;
15287;SDS011;7745;48.708;9.026;2023-05-07T16:06:54;6.50;;;3.80;;
15287;SDS011;7745;48.708;9.026;2023-05-07T16:09:21;6.10;;;3.40;;
15287;SDS011;7745;48.708;9.026;2023-05-07T16:11:49;5.23;;;3.70;;
15287;SDS011;7745;48.708;9.026;2023-05-07T16:14:15;6.27;;;3.53;;
15287;SDS011;7745;48.708;9.026;2023-05-07T16:16:43;4.83;;;3.10;;
15287;SDS011;7745;48.708;9.026;2023-05-07T16:19:10;4.83;;;3.20;;
15287;SDS011;7745;48.708;9.026;2023-05-07T16:21:37;4.07;;;2.93;;
15287;SDS011;7745;48.708;9.026;2023-05-07T16:24:04;4.30;;;2.47;;
15287;SDS011;7745;48.708;9.026;2023-05-07T16:26:31;3.10;;;2.80;;
15287;SDS011;7745;48.708;9.026;2023-05-07T16:28:57;2.87;;;2.37;;
15287;SDS011;7745;48.708;9.026;2023-05-07T16:31:25;5.80;;;2.50;;
15287;SDS011;7745;48.708;9.026;2023-05-07T16:33:53;3.43;;;2.40;;
15287;SDS011;7745;48.708;9.026;2023-05-07T16:36:20;3.83;;;2.23;;
15287;SDS011;7745;48.708;9.026;2023-05-07T16:38:47;3.73;;;2.40;;
15287;SDS011;7745;48.708;9.026;2023-05-07T16:41:14;3.20;;;2.23;;
15287;SDS011;7745;48.708;9.026;2023-05-07T16:43:40;3.30;;;2.60;;
15287;SDS011;7745;48.708;9.026;2023-05-07T16:46:07;3.80;;;2.40;;
15287;SDS011;7745;48.708;9.026;2023-05-07T16:48:34;3.70;;;2.30;;
15287;SDS011;7745;48.708;9.026;2023-05-07T16:51:02;4.37;;;2.63;;
15287;SDS011;7745;48.708;9.026;2023-05-07T16:53:31;3.83;;;2.90;;
15287;SDS011;7745;48.708;9.026;2023-05-07T16:55:57;3.30;;;2.90;;
15287;SDS011;7745;48.708;9.026;2023-05-07T16:58:24;4.83;;;2.93;;
15287;SDS011;7745;48.708;9.026;2023-05-07T17:00:52;4.33;;;3.20;;
15287;SDS011;7745;48.708;9.026;2023-05-07T17:03:19;3.43;;;3.00;;
15287;SDS011;7745;48.708;9.026;2023-05-07T17:05:45;3.50;;;3.20;;
15287;SDS011;7745;48.708;9.026;2023-05-07T17:08:14;5.30;;;3.37;;
15287;SDS011;7745;48.708;9.026;2023-05-07T17:10:40;4.63;;;2.80;;
15287;SDS011;7745;48.708;9.026;2023-05-07T17:13:07;3.90;;;3.30;;
15287;SDS011;7745;48.708;9.026;2023-05-07T17:15:34;7.03;;;3.20;;
15287;SDS011;7745;48.708;9.026;2023-05-07T17:18:01;5.43;;;2.70;;
15287;SDS011;7745;48.708;9.026;2023-05-07T17:20:28;4.67;;;3.13;;
15287;SDS011;7745;48.708;9.026;2023-05-07T17:22:54;4.83;;;3.20;;
15287;SDS011;7745;48.708;9.026;2023-05-07T17:25:23;4.50;;;2.90;;
15287;SDS011;7745;48.708;9.026;2023-05-07T17:27:50;5.10;;;3.40;;
15287;SDS011;7745;48.708;9.026;2023-05-07T17:30:16;4.30;;;3.00;;
15287;SDS011;7745;48.708;9.026;2023-05-07T17:32:43;3.20;;;2.90;;
15287;SDS011;7745;48.708;9.026;2023-05-07T17:35:10;3.37;;;3.07;;
15287;SDS011;7745;48.708;9.026;2023-05-07T17:37:37;4.23;;;3.40;;
15287;SDS011;7745;48.708;9.026;2023-05-07T17:40:04;3.47;;;3.10;;
15287;SDS011;7745;48.708;9.026;2023-05-07T17:42:33;4.33;;;3.30;;
15287;SDS011;7745;48.708;9.026;2023-05-07T17:45:00;4.67;;;3.23;;
15287;SDS011;7745;48.708;9.026;2023-05-07T17:47:27;6.73;;;3.70;;
15287;SDS011;7745;48.708;9.026;2023-05-07T17:49:54;3.47;;;3.17;;
15287;SDS011;7745;48.708;9.026;2023-05-07T17:52:21;3.50;;;3.10;;
15287;SDS011;7745;48.708;9.026;2023-05-07T17:54:48;4.17;;;3.63;;
15287;SDS011;7745;48.708;9.026;2023-05-07T17:57:15;4.50;;;3.40;;
15287;SDS011;7745;48.708;9.026;2023-05-07T17:59:54;6.03;;;3.43;;
15287;SDS011;7745;48.708;9.026;2023-05-07T18:02:21;4.73;;;3.40;;
15287;SDS011;7745;48.708;9.026;2023-05-07T18:04:47;5.27;;;3.70;;
15287;SDS011;7745;48.708;9.026;2023-05-07T18:07:15;4.23;;;3.00;;
15287;SDS011;7745;48.708;9.026;2023-05-07T18:09:41;3.90;;;3.20;;
15287;SDS011;7745;48.708;9.026;2023-05-07T18:12:08;4.40;;;3.40;;
15287;SDS011;7745;48.708;9.026;2023-05-07T18:14:35;3.93;;;3.20;;
15287;SDS011;7745;48.708;9.026;2023-05-07T18:17:03;5.73;;;4.03;;
15287;SDS011;7745;48.708;9.026;2023-05-07T18:19:29;4.43;;;3.40;;
15287;SDS011;7745;48.708;9.026;2023-05-07T18:21:56;3.73;;;3.33;;
15287;SDS011;7745;48.708;9.026;2023-05-07T18:24:23;6.40;;;3.90;;
15287;SDS011;7745;48.708;9.026;2023-05-07T18:26:51;5.90;;;3.67;;
15287;SDS011;7745;48.708;9.026;2023-05-07T18:29:18;5.40;;;3.73;;
15287;SDS011;7745;48.708;9.026;2023-05-07T18:31:45;7.53;;;3.90;;
15287;SDS011;7745;48.708;9.026;2023-05-07T18:34:13;4.30;;;3.80;;
15287;SDS011;7745;48.708;9.026;2023-05-07T18:36:40;4.27;;;3.83;;
15287;SDS011;7745;48.708;9.026;2023-05-07T18:39:07;5.07;;;3.63;;
15287;SDS011;7745;48.708;9.026;2023-05-07T18:41:34;4.47;;;3.63;;
15287;SDS011;7745;48.708;9.026;2023-05-07T18:44:01;4.70;;;3.80;;
15287;SDS011;7745;48.708;9.026;2023-05-07T18:46:27;4.93;;;3.20;;